createdAt,value
2023-01-15T00:00:25.185Z,33.52
2023-01-15T00:00:55.191Z,33.52
2023-01-15T00:01:25.327Z,33.49
2023-01-15T00:01:55.349Z,33.51
2023-01-15T00:02:25.433Z,33.51
2023-01-15T00:02:55.588Z,33.54
2023-01-15T00:03:25.496Z,33.53
2023-01-15T00:03:55.563Z,33.53
2023-01-15T00:04:25.534Z,33.52
2023-01-15T00:04:55.655Z,33.49
2023-01-15T00:05:25.771Z,33.51
2023-01-15T00:05:55.875Z,33.53
2023-01-15T00:06:25.987Z,33.48
2023-01-15T00:06:56.116Z,33.51
2023-01-15T00:07:26.154Z,33.54
2023-01-15T00:07:56.133Z,33.45
2023-01-15T00:08:26.290Z,33.48
2023-01-15T00:08:56.256Z,33.46
2023-01-15T00:09:26.413Z,33.48
2023-01-15T00:09:56.390Z,33.49
2023-01-15T00:10:26.405Z,33.49
2023-01-15T00:10:56.495Z,33.49
2023-01-15T00:11:26.489Z,33.46
2023-01-15T00:11:56.649Z,33.44
2023-01-15T00:12:26.650Z,33.48
2023-01-15T00:12:56.658Z,33.47
2023-01-15T00:13:26.656Z,33.49
2023-01-15T00:13:56.760Z,33.49
2023-01-15T00:14:26.873Z,33.46
2023-01-15T00:14:57.037Z,33.52
2023-01-15T00:15:27.022Z,33.47
2023-01-15T00:15:57.193Z,33.49
2023-01-15T00:16:27.169Z,33.49
2023-01-15T00:16:57.281Z,33.46
2023-01-15T00:17:27.382Z,33.46
2023-01-15T00:17:57.705Z,33.46
2023-01-15T00:18:27.543Z,33.49
2023-01-15T00:18:57.670Z,33.43
2023-01-15T00:19:27.812Z,33.47
2023-01-15T00:19:57.769Z,33.46
2023-01-15T00:20:27.777Z,33.41
2023-01-15T00:20:57.882Z,33.44
2023-01-15T00:21:28.034Z,33.49
2023-01-15T00:21:58.022Z,33.40
2023-01-15T00:22:28.137Z,33.43
2023-01-15T00:22:58.134Z,33.46
2023-01-15T00:23:28.295Z,33.41
2023-01-15T00:23:58.263Z,33.48
2023-01-15T00:24:28.418Z,33.46
2023-01-15T00:24:58.390Z,33.44
2023-01-15T00:25:28.588Z,33.45
2023-01-15T00:25:58.559Z,33.43
2023-01-15T00:26:28.679Z,33.41
2023-01-15T00:26:58.800Z,33.41
2023-01-15T00:27:28.790Z,33.43
2023-01-15T00:28:01.559Z,33.40
2023-01-15T00:28:28.890Z,33.46
2023-01-15T00:28:58.990Z,33.43
2023-01-15T00:29:29.029Z,33.43
2023-01-15T00:29:59.027Z,33.48
2023-01-15T00:30:29.115Z,33.43
2023-01-15T00:30:59.278Z,33.43
2023-01-15T00:31:29.310Z,33.46
2023-01-15T00:31:59.303Z,33.41
2023-01-15T00:32:29.508Z,33.40
2023-01-15T00:33:38.425Z,33.43
2023-01-15T00:34:08.493Z,33.49
2023-01-15T00:34:38.599Z,33.46
2023-01-15T00:35:08.651Z,33.49
2023-01-15T00:35:38.719Z,33.51
2023-01-15T00:36:08.794Z,33.49
2023-01-15T00:36:38.867Z,33.52
2023-01-15T00:37:08.953Z,33.47
2023-01-15T00:37:39.043Z,33.51
2023-01-15T00:38:09.092Z,33.54
2023-01-15T00:38:39.169Z,33.47
2023-01-15T00:39:09.242Z,33.52
2023-01-15T00:39:39.317Z,33.56
2023-01-15T00:40:09.390Z,33.51
2023-01-15T00:40:39.460Z,33.51
2023-01-15T00:41:09.538Z,33.52
2023-01-15T00:41:39.615Z,33.55
2023-01-15T00:42:09.699Z,33.52
2023-01-15T00:42:39.759Z,33.56
2023-01-15T00:43:09.836Z,33.54
2023-01-15T00:43:39.944Z,33.54
2023-01-15T00:44:10.056Z,33.56
2023-01-15T00:44:40.166Z,33.52
2023-01-15T00:45:10.346Z,33.54
2023-01-15T00:45:40.190Z,33.54
2023-01-15T00:46:10.363Z,33.54
2023-01-15T00:46:40.396Z,33.52
2023-01-15T00:47:10.362Z,33.55
2023-01-15T00:47:40.472Z,33.56
2023-01-15T00:48:10.581Z,33.56
2023-01-15T00:48:40.686Z,33.51
2023-01-15T00:49:10.801Z,33.54
2023-01-15T00:49:40.936Z,33.54
2023-01-15T00:50:10.911Z,33.52
2023-01-15T00:50:41.016Z,33.54
2023-01-15T00:51:11.129Z,33.56
2023-01-15T00:51:41.244Z,33.52
2023-01-15T00:52:11.361Z,33.52
2023-01-15T00:52:41.459Z,33.51
2023-01-15T00:53:11.581Z,33.52
2023-01-15T00:53:41.682Z,33.52
2023-01-15T00:54:11.797Z,33.51
2023-01-15T00:54:41.910Z,33.50
2023-01-15T00:55:12.017Z,33.52
2023-01-15T00:55:42.131Z,33.47
2023-01-15T00:56:12.248Z,33.45
2023-01-15T00:56:42.363Z,33.51
2023-01-15T00:57:12.465Z,33.52
2023-01-15T00:57:42.582Z,33.52
2023-01-15T00:58:12.699Z,33.55
2023-01-15T00:58:42.687Z,33.54
2023-01-15T00:59:12.806Z,33.52
2023-01-15T00:59:42.819Z,33.52
2023-01-15T01:00:12.793Z,33.45
2023-01-15T01:00:42.952Z,33.51
2023-01-15T01:01:13.036Z,33.55
2023-01-15T01:01:43.170Z,33.57
2023-01-15T01:02:13.127Z,33.57
2023-01-15T01:02:43.192Z,33.51
2023-01-15T01:03:13.100Z,33.54
2023-01-15T01:03:43.218Z,33.47
2023-01-15T01:04:13.309Z,33.53
2023-01-15T01:04:43.419Z,33.52
2023-01-15T01:05:13.536Z,33.52
2023-01-15T01:05:43.647Z,33.55
2023-01-15T01:06:13.774Z,33.52
2023-01-15T01:06:43.778Z,33.54
2023-01-15T01:07:13.873Z,33.58
2023-01-15T01:07:43.988Z,33.51
2023-01-15T01:08:14.113Z,33.53
2023-01-15T01:08:44.217Z,33.55
2023-01-15T01:09:14.335Z,33.54
2023-01-15T01:09:44.435Z,33.49
2023-01-15T01:10:14.556Z,33.49
2023-01-15T01:10:44.668Z,33.54
2023-01-15T01:11:14.766Z,33.51
2023-01-15T01:11:44.884Z,33.50
2023-01-15T01:12:14.994Z,33.50
2023-01-15T01:12:45.099Z,33.53
2023-01-15T01:13:15.108Z,33.52
2023-01-15T01:13:45.229Z,33.49
2023-01-15T01:14:15.334Z,33.51
2023-01-15T01:14:45.449Z,33.52
2023-01-15T01:15:15.460Z,33.51
2023-01-15T01:15:45.457Z,33.52
2023-01-15T01:16:15.708Z,33.50
2023-01-15T01:16:45.567Z,33.45
2023-01-15T01:17:15.563Z,33.45
2023-01-15T01:17:45.564Z,33.49
2023-01-15T01:18:15.670Z,33.52
2023-01-15T01:18:45.784Z,33.47
2023-01-15T01:19:15.889Z,33.47
2023-01-15T01:19:46.003Z,33.46
2023-01-15T01:20:16.119Z,33.47
2023-01-15T01:20:46.227Z,33.50
2023-01-15T01:21:16.349Z,33.45
2023-01-15T01:21:46.327Z,33.47
2023-01-15T01:22:16.445Z,33.49
2023-01-15T01:22:46.564Z,33.50
2023-01-15T01:23:16.670Z,33.45
2023-01-15T01:23:46.782Z,33.50
2023-01-15T01:24:16.892Z,33.50
2023-01-15T01:24:47.014Z,33.49
2023-01-15T01:25:17.134Z,33.49
2023-01-15T01:25:47.229Z,33.49
2023-01-15T01:26:17.384Z,33.41
2023-01-15T01:26:47.354Z,33.51
2023-01-15T01:27:17.466Z,33.41
2023-01-15T01:27:47.571Z,33.47
2023-01-15T01:28:17.684Z,33.50
2023-01-15T01:28:47.802Z,33.47
2023-01-15T01:29:17.913Z,33.44
2023-01-15T01:29:48.043Z,33.47
2023-01-15T01:30:18.041Z,33.47
2023-01-15T01:30:48.024Z,33.49
2023-01-15T01:31:18.197Z,33.45
2023-01-15T01:31:48.274Z,33.49
2023-01-15T01:32:18.254Z,33.47
2023-01-15T01:32:48.369Z,33.47
2023-01-15T01:33:18.465Z,33.44
2023-01-15T01:33:48.562Z,33.47
2023-01-15T01:34:18.630Z,33.49
2023-01-15T01:34:48.709Z,33.44
2023-01-15T01:35:18.786Z,33.44
2023-01-15T01:35:48.853Z,33.47
2023-01-15T01:36:18.940Z,33.45
2023-01-15T01:36:49.005Z,33.44
2023-01-15T01:37:19.089Z,33.49
2023-01-15T01:37:49.149Z,33.44
2023-01-15T01:38:19.230Z,33.45
2023-01-15T01:38:49.302Z,33.47
2023-01-15T01:39:19.390Z,33.49
2023-01-15T01:39:49.452Z,33.49
2023-01-15T01:40:19.546Z,33.45
2023-01-15T01:40:49.608Z,33.43
2023-01-15T01:41:19.693Z,33.49
2023-01-15T01:41:49.768Z,33.42
2023-01-15T01:42:19.833Z,33.39
2023-01-15T01:42:49.914Z,33.41
2023-01-15T01:43:19.990Z,33.45
2023-01-15T01:43:50.107Z,33.43
2023-01-15T01:44:20.215Z,33.45
2023-01-15T01:44:50.341Z,33.41
2023-01-15T01:45:20.341Z,33.44
2023-01-15T01:45:50.450Z,33.44
2023-01-15T01:46:20.564Z,33.47
2023-01-15T01:46:50.672Z,33.44
2023-01-15T01:47:20.781Z,33.39
2023-01-15T01:47:50.906Z,33.45
2023-01-15T01:48:21.021Z,33.47
2023-01-15T01:48:51.128Z,33.47
2023-01-15T01:49:21.238Z,33.39
2023-01-15T01:49:51.469Z,33.50
2023-01-15T01:50:21.450Z,33.44
2023-01-15T01:50:51.561Z,33.39
2023-01-15T01:51:21.675Z,33.42
2023-01-15T01:51:51.794Z,33.42
2023-01-15T01:52:21.904Z,33.45
2023-01-15T01:52:52.017Z,33.43
2023-01-15T01:53:22.136Z,33.44
2023-01-15T01:53:52.276Z,33.47
2023-01-15T01:54:22.245Z,33.45
2023-01-15T01:54:52.366Z,33.45
2023-01-15T01:55:22.358Z,33.50
2023-01-15T01:55:52.472Z,33.49
2023-01-15T01:56:22.587Z,33.47
2023-01-15T01:56:52.803Z,33.49
2023-01-15T01:57:22.795Z,33.45
2023-01-15T01:57:52.908Z,33.50
2023-01-15T01:58:23.013Z,33.45
2023-01-15T01:58:53.140Z,33.45
2023-01-15T01:59:23.251Z,33.50
2023-01-15T01:59:53.252Z,33.49
2023-01-15T02:00:23.349Z,33.49
2023-01-15T02:00:53.497Z,33.53
2023-01-15T02:01:23.594Z,33.40
2023-01-15T02:01:53.697Z,33.44
2023-01-15T02:02:23.631Z,33.51
2023-01-15T02:02:53.715Z,33.50
2023-01-15T02:03:23.823Z,33.53
2023-01-15T02:03:53.944Z,33.49
2023-01-15T02:04:24.069Z,33.42
2023-01-15T02:04:54.164Z,33.47
2023-01-15T02:05:24.290Z,33.45
2023-01-15T02:05:54.392Z,33.47
2023-01-15T02:06:24.509Z,33.50
2023-01-15T02:06:54.638Z,33.47
2023-01-15T02:07:24.616Z,33.40
2023-01-15T02:07:54.738Z,33.44
2023-01-15T02:08:24.854Z,33.49
2023-01-15T02:08:54.966Z,33.49
2023-01-15T02:09:25.076Z,33.46
2023-01-15T02:09:55.181Z,33.50
2023-01-15T02:10:25.290Z,33.47
2023-01-15T02:10:55.401Z,33.44
2023-01-15T02:11:25.509Z,33.44
2023-01-15T02:11:55.633Z,33.47
2023-01-15T02:12:25.735Z,33.47
2023-01-15T02:12:55.861Z,33.45
2023-01-15T02:13:25.971Z,33.40
2023-01-15T02:13:56.075Z,33.44
2023-01-15T02:14:26.189Z,33.42
2023-01-15T02:14:56.307Z,33.45
2023-01-15T02:15:26.314Z,33.45
2023-01-15T02:15:56.420Z,33.39
2023-01-15T02:16:26.700Z,33.38
2023-01-15T02:16:56.617Z,33.49
2023-01-15T02:17:26.606Z,33.42
2023-01-15T02:17:56.720Z,33.42
2023-01-15T02:18:26.831Z,33.41
2023-01-15T02:18:56.938Z,33.39
2023-01-15T02:19:27.068Z,33.45
2023-01-15T02:19:57.053Z,33.41
2023-01-15T02:20:27.054Z,33.44
2023-01-15T02:20:57.161Z,33.47
2023-01-15T02:21:27.283Z,33.40
2023-01-15T02:21:57.392Z,33.40
2023-01-15T02:22:27.503Z,33.42
2023-01-15T02:22:57.618Z,33.38
2023-01-15T02:23:27.731Z,33.36
2023-01-15T02:23:57.837Z,33.36
2023-01-15T02:24:27.849Z,33.37
2023-01-15T02:24:57.839Z,33.42
2023-01-15T02:25:27.953Z,33.39
2023-01-15T02:25:57.962Z,33.42
2023-01-15T02:26:28.093Z,33.39
2023-01-15T02:26:58.065Z,33.40
2023-01-15T02:27:28.172Z,33.39
2023-01-15T02:27:58.297Z,33.40
2023-01-15T02:28:28.395Z,33.35
2023-01-15T02:28:58.506Z,33.32
2023-01-15T02:29:28.553Z,33.36
2023-01-15T02:29:58.533Z,33.41
2023-01-15T02:30:28.662Z,33.37
2023-01-15T02:30:58.645Z,33.39
2023-01-15T02:31:28.808Z,33.34
2023-01-15T02:31:58.835Z,33.36
2023-01-15T02:32:28.804Z,33.34
2023-01-15T02:32:58.917Z,33.37
2023-01-15T02:33:29.007Z,33.34
2023-01-15T02:33:59.076Z,33.35
2023-01-15T02:34:29.148Z,33.40
2023-01-15T02:35:00.649Z,33.32
2023-01-15T02:35:29.265Z,33.37
2023-01-15T02:35:59.332Z,33.32
2023-01-15T02:36:29.411Z,33.34
2023-01-15T02:36:59.540Z,33.31
2023-01-15T02:37:29.486Z,33.37
2023-01-15T02:37:59.568Z,33.31
2023-01-15T02:38:29.640Z,33.31
2023-01-15T02:38:59.708Z,33.33
2023-01-15T02:39:29.779Z,33.34
2023-01-15T02:39:59.865Z,33.34
2023-01-15T02:40:29.940Z,33.31
2023-01-15T02:41:00.005Z,33.34
2023-01-15T02:41:30.089Z,33.34
2023-01-15T02:42:00.169Z,33.36
2023-01-15T02:42:30.239Z,33.34
2023-01-15T02:43:00.321Z,33.32
2023-01-15T02:43:30.420Z,33.34
2023-01-15T02:44:00.530Z,33.31
2023-01-15T02:44:30.672Z,33.31
2023-01-15T02:45:00.659Z,33.36
2023-01-15T02:45:30.820Z,33.29
2023-01-15T02:46:00.833Z,33.28
2023-01-15T02:46:30.838Z,33.31
2023-01-15T02:47:00.967Z,33.34
2023-01-15T02:47:30.950Z,33.33
2023-01-15T02:48:01.062Z,33.24
2023-01-15T02:48:31.176Z,33.33
2023-01-15T02:49:01.308Z,33.33
2023-01-15T02:49:31.311Z,33.29
2023-01-15T02:50:01.424Z,33.31
2023-01-15T02:50:31.542Z,33.31
2023-01-15T02:51:01.649Z,33.24
2023-01-15T02:51:31.777Z,33.29
2023-01-15T02:52:01.872Z,33.29
2023-01-15T02:52:31.867Z,33.28
2023-01-15T02:53:01.983Z,33.29
2023-01-15T02:53:31.980Z,33.29
2023-01-15T02:54:01.971Z,33.31
2023-01-15T02:54:32.120Z,33.24
2023-01-15T02:55:02.103Z,33.29
2023-01-15T02:55:32.098Z,33.28
2023-01-15T02:56:02.214Z,33.28
2023-01-15T02:56:32.330Z,33.23
2023-01-15T02:57:02.430Z,33.28
2023-01-15T02:57:32.429Z,33.29
2023-01-15T02:58:02.536Z,33.24
2023-01-15T02:58:32.647Z,33.29
2023-01-15T02:59:02.755Z,33.33
2023-01-15T02:59:32.897Z,33.26
2023-01-15T03:00:02.881Z,33.26
2023-01-15T03:00:32.990Z,33.26
2023-01-15T03:01:03.178Z,33.23
2023-01-15T03:01:33.274Z,33.24
2023-01-15T03:02:03.378Z,33.26
2023-01-15T03:02:33.289Z,33.21
2023-01-15T03:03:03.299Z,33.21
2023-01-15T03:03:33.423Z,33.22
2023-01-15T03:04:03.536Z,33.22
2023-01-15T03:04:33.520Z,33.20
2023-01-15T03:05:03.645Z,33.23
2023-01-15T03:05:33.742Z,33.28
2023-01-15T03:06:03.856Z,33.26
2023-01-15T03:06:33.969Z,33.24
2023-01-15T03:07:04.122Z,33.20
2023-01-15T03:07:34.119Z,33.23
2023-01-15T03:08:04.228Z,33.19
2023-01-15T03:08:34.344Z,33.23
2023-01-15T03:09:04.464Z,33.20
2023-01-15T03:09:34.601Z,33.15
2023-01-15T03:10:04.598Z,33.23
2023-01-15T03:10:34.706Z,33.26
2023-01-15T03:11:04.815Z,33.24
2023-01-15T03:11:34.939Z,33.24
2023-01-15T03:12:05.073Z,33.24
2023-01-15T03:12:35.060Z,33.20
2023-01-15T03:13:05.168Z,33.23
2023-01-15T03:13:35.280Z,33.24
2023-01-15T03:14:05.287Z,33.26
2023-01-15T03:14:35.390Z,33.26
2023-01-15T03:15:05.506Z,33.23
2023-01-15T03:15:35.613Z,33.28
2023-01-15T03:16:05.719Z,33.24
2023-01-15T03:16:35.961Z,33.24
2023-01-15T03:17:05.881Z,33.26
2023-01-15T03:17:35.877Z,33.26
2023-01-15T03:18:05.990Z,33.29
2023-01-15T03:18:36.098Z,33.26
2023-01-15T03:19:06.215Z,33.28
2023-01-15T03:19:36.351Z,33.23
2023-01-15T03:20:06.327Z,33.22
2023-01-15T03:20:36.450Z,33.26
2023-01-15T03:21:06.576Z,33.26
2023-01-15T03:21:36.667Z,33.31
2023-01-15T03:22:06.675Z,33.28
2023-01-15T03:22:36.676Z,33.27
2023-01-15T03:23:06.785Z,33.29
2023-01-15T03:23:36.904Z,33.23
2023-01-15T03:24:07.025Z,33.24
2023-01-15T03:24:37.044Z,33.31
2023-01-15T03:25:07.036Z,33.29
2023-01-15T03:25:37.142Z,33.26
2023-01-15T03:26:07.252Z,33.29
2023-01-15T03:26:37.381Z,33.27
2023-01-15T03:27:07.475Z,33.27
2023-01-15T03:27:37.583Z,33.26
2023-01-15T03:28:07.585Z,33.31
2023-01-15T03:28:37.769Z,33.26
2023-01-15T03:29:07.767Z,33.24
2023-01-15T03:29:37.785Z,33.32
2023-01-15T03:30:07.782Z,33.32
2023-01-15T03:30:37.913Z,33.31
2023-01-15T03:31:07.996Z,33.34
2023-01-15T03:31:37.903Z,33.26
2023-01-15T03:32:08.044Z,33.26
2023-01-15T03:32:38.126Z,33.26
2023-01-15T03:33:08.245Z,33.31
2023-01-15T03:33:38.315Z,33.34
2023-01-15T03:34:08.394Z,33.34
2023-01-15T03:34:38.459Z,33.30
2023-01-15T03:35:08.537Z,33.29
2023-01-15T03:35:38.611Z,33.29
2023-01-15T03:36:08.680Z,33.29
2023-01-15T03:36:38.757Z,33.32
2023-01-15T03:37:08.831Z,33.29
2023-01-15T03:37:38.907Z,33.30
2023-01-15T03:38:08.992Z,33.27
2023-01-15T03:38:39.082Z,33.29
2023-01-15T03:39:09.155Z,33.27
2023-01-15T03:39:39.230Z,33.31
2023-01-15T03:40:09.306Z,33.26
2023-01-15T03:40:39.372Z,33.28
2023-01-15T03:41:09.444Z,33.27
2023-01-15T03:41:39.513Z,33.27
2023-01-15T03:42:09.594Z,33.32
2023-01-15T03:42:39.676Z,33.31
2023-01-15T03:43:09.757Z,33.32
2023-01-15T03:43:39.881Z,33.29
2023-01-15T03:44:09.863Z,33.26
2023-01-15T03:44:39.988Z,33.27
2023-01-15T03:45:10.094Z,33.27
2023-01-15T03:45:40.292Z,33.28
2023-01-15T03:46:10.335Z,33.23
2023-01-15T03:46:40.330Z,33.26
2023-01-15T03:47:10.418Z,33.28
2023-01-15T03:47:40.555Z,33.24
2023-01-15T03:48:49.590Z,33.24
2023-01-15T03:49:19.653Z,33.27
2023-01-15T03:49:49.744Z,33.27
2023-01-15T03:50:19.819Z,33.26
2023-01-15T03:50:49.892Z,33.26
2023-01-15T03:51:19.969Z,33.27
2023-01-15T03:51:50.031Z,33.26
2023-01-15T03:52:20.116Z,33.29
2023-01-15T03:52:50.179Z,33.27
2023-01-15T03:53:20.246Z,33.24
2023-01-15T03:53:50.337Z,33.29
2023-01-15T03:54:20.447Z,33.24
2023-01-15T03:54:50.426Z,33.22
2023-01-15T03:55:20.498Z,33.23
2023-01-15T03:55:50.570Z,33.21
2023-01-15T03:56:20.663Z,33.29
2023-01-15T03:56:50.704Z,33.21
2023-01-15T03:57:20.783Z,33.29
2023-01-15T03:57:50.868Z,33.21
2023-01-15T03:58:20.959Z,33.22
2023-01-15T03:58:51.097Z,33.23
2023-01-15T03:59:21.189Z,33.24
2023-01-15T03:59:51.333Z,33.24
2023-01-15T04:00:21.330Z,33.21
2023-01-15T04:00:51.429Z,33.21
2023-01-15T04:01:21.714Z,33.23
2023-01-15T04:01:51.720Z,33.21
2023-01-15T04:02:21.732Z,33.21
2023-01-15T04:02:51.849Z,33.19
2023-01-15T04:03:21.837Z,33.23
2023-01-15T04:03:51.950Z,33.16
2023-01-15T04:04:22.100Z,33.20
2023-01-15T04:04:52.114Z,33.16
2023-01-15T04:05:22.257Z,33.19
2023-01-15T04:05:52.215Z,33.18
2023-01-15T04:06:22.322Z,33.15
2023-01-15T04:06:52.434Z,33.23
2023-01-15T04:07:22.551Z,33.16
2023-01-15T04:07:52.689Z,33.18
2023-01-15T04:08:22.673Z,33.18
2023-01-15T04:08:52.790Z,33.16
2023-01-15T04:09:22.782Z,33.16
2023-01-15T04:09:52.891Z,33.16
2023-01-15T04:10:23.003Z,33.21
2023-01-15T04:10:53.114Z,33.16
2023-01-15T04:11:23.224Z,33.18
2023-01-15T04:11:53.333Z,33.18
2023-01-15T04:12:23.439Z,33.19
2023-01-15T04:12:53.571Z,33.16
2023-01-15T04:13:23.558Z,33.19
2023-01-15T04:13:53.666Z,33.23
2023-01-15T04:14:23.775Z,33.15
2023-01-15T04:14:53.894Z,33.13
2023-01-15T04:15:24.071Z,33.13
2023-01-15T04:15:54.180Z,33.18
2023-01-15T04:16:24.171Z,33.18
2023-01-15T04:16:54.253Z,33.18
2023-01-15T04:17:24.366Z,33.13
2023-01-15T04:17:54.485Z,33.19
2023-01-15T04:18:24.595Z,33.19
2023-01-15T04:18:54.718Z,33.16
2023-01-15T04:19:24.824Z,33.16
2023-01-15T04:19:54.921Z,33.14
2023-01-15T04:20:25.034Z,33.19
2023-01-15T04:20:55.141Z,33.18
2023-01-15T04:21:25.262Z,33.19
2023-01-15T04:21:55.364Z,33.17
2023-01-15T04:22:25.476Z,33.18
2023-01-15T04:22:55.590Z,33.18
2023-01-15T04:23:25.713Z,33.17
2023-01-15T04:23:55.810Z,33.17
2023-01-15T04:24:25.945Z,33.19
2023-01-15T04:24:56.037Z,33.24
2023-01-15T04:25:26.150Z,33.21
2023-01-15T04:25:56.259Z,33.19
2023-01-15T04:26:26.382Z,33.22
2023-01-15T04:26:56.478Z,33.19
2023-01-15T04:27:26.584Z,33.16
2023-01-15T04:27:56.695Z,33.26
2023-01-15T04:28:26.805Z,33.22
2023-01-15T04:28:56.915Z,33.22
2023-01-15T04:29:27.034Z,33.25
2023-01-15T04:29:57.136Z,33.24
2023-01-15T04:30:27.255Z,33.21
2023-01-15T04:30:57.436Z,33.24
2023-01-15T04:31:27.411Z,33.22
2023-01-15T04:31:57.678Z,33.22
2023-01-15T04:32:27.525Z,33.27
2023-01-15T04:32:57.648Z,33.19
2023-01-15T04:33:27.751Z,33.29
2023-01-15T04:33:57.862Z,33.21
2023-01-15T04:34:27.992Z,33.27
2023-01-15T04:34:58.031Z,33.22
2023-01-15T04:35:28.121Z,33.22
2023-01-15T04:35:58.224Z,33.21
2023-01-15T04:36:28.352Z,33.21
2023-01-15T04:36:58.447Z,33.22
2023-01-15T04:37:28.554Z,33.22
2023-01-15T04:37:58.677Z,33.22
2023-01-15T04:38:28.774Z,33.22
2023-01-15T04:38:58.898Z,33.21
2023-01-15T04:39:28.992Z,33.22
2023-01-15T04:39:59.107Z,33.24
2023-01-15T04:40:29.219Z,33.27
2023-01-15T04:40:59.327Z,33.22
2023-01-15T04:41:29.441Z,33.19
2023-01-15T04:41:59.550Z,33.21
2023-01-15T04:42:29.653Z,33.21
2023-01-15T04:42:59.786Z,33.21
2023-01-15T04:43:29.786Z,33.21
2023-01-15T04:43:59.878Z,33.17
2023-01-15T04:44:29.988Z,33.16
2023-01-15T04:45:00.095Z,33.19
2023-01-15T04:45:30.211Z,33.14
2023-01-15T04:46:00.468Z,33.21
2023-01-15T04:46:30.419Z,33.21
2023-01-15T04:47:00.396Z,33.16
2023-01-15T04:47:30.500Z,33.16
2023-01-15T04:48:00.630Z,33.16
2023-01-15T04:48:30.725Z,33.14
2023-01-15T04:49:00.805Z,33.19
2023-01-15T04:49:30.885Z,33.17
2023-01-15T04:50:00.957Z,33.16
2023-01-15T04:50:31.025Z,33.16
2023-01-15T04:51:01.103Z,33.19
2023-01-15T04:51:31.176Z,33.16
2023-01-15T04:52:01.245Z,33.17
2023-01-15T04:52:31.314Z,33.19
2023-01-15T04:53:01.393Z,33.19
2023-01-15T04:53:31.465Z,33.14
2023-01-15T04:54:01.563Z,33.16
2023-01-15T04:54:31.617Z,33.13
2023-01-15T04:55:01.677Z,33.10
2023-01-15T04:55:31.771Z,33.16
2023-01-15T04:56:01.823Z,33.14
2023-01-15T04:56:31.891Z,33.16
2023-01-15T04:57:01.964Z,33.19
2023-01-15T04:57:32.082Z,33.13
2023-01-15T04:58:02.167Z,33.16
2023-01-15T04:58:32.240Z,33.08
2023-01-15T04:59:02.402Z,33.14
2023-01-15T04:59:32.370Z,33.17
2023-01-15T05:00:02.479Z,33.14
2023-01-15T05:00:32.592Z,33.13
2023-01-15T05:01:02.822Z,33.14
2023-01-15T05:01:32.951Z,33.14
2023-01-15T05:02:06.055Z,33.13
2023-01-15T05:02:32.994Z,33.13
2023-01-15T05:03:03.021Z,33.11
2023-01-15T05:03:33.006Z,33.11
2023-01-15T05:04:03.120Z,33.13
2023-01-15T05:04:33.373Z,33.11
2023-01-15T05:05:03.219Z,33.16
2023-01-15T05:05:33.327Z,33.08
2023-01-15T05:06:03.449Z,33.17
2023-01-15T05:06:33.553Z,33.13
2023-01-15T05:07:03.661Z,33.09
2023-01-15T05:07:33.770Z,33.13
2023-01-15T05:08:03.891Z,33.11
2023-01-15T05:08:33.889Z,33.11
2023-01-15T05:09:03.999Z,33.13
2023-01-15T05:09:34.127Z,33.06
2023-01-15T05:10:04.217Z,33.09
2023-01-15T05:10:34.328Z,33.10
2023-01-15T05:11:04.440Z,33.09
2023-01-15T05:11:34.555Z,33.09
2023-01-15T05:12:04.685Z,33.10
2023-01-15T05:12:34.664Z,33.08
2023-01-15T05:13:04.770Z,33.09
2023-01-15T05:13:34.885Z,33.06
2023-01-15T05:14:04.998Z,33.06
2023-01-15T05:14:35.105Z,33.08
2023-01-15T05:15:05.215Z,33.10
2023-01-15T05:15:35.392Z,33.09
2023-01-15T05:16:05.377Z,33.11
2023-01-15T05:16:35.357Z,33.05
2023-01-15T05:17:05.460Z,33.06
2023-01-15T05:17:35.573Z,33.03
2023-01-15T05:18:05.686Z,33.08
2023-01-15T05:18:35.797Z,33.08
2023-01-15T05:19:05.907Z,33.09
2023-01-15T05:19:36.019Z,33.06
2023-01-15T05:20:06.140Z,33.11
2023-01-15T05:20:36.247Z,33.05
2023-01-15T05:21:06.358Z,33.07
2023-01-15T05:21:36.468Z,33.05
2023-01-15T05:22:06.593Z,33.00
2023-01-15T05:22:36.700Z,33.08
2023-01-15T05:23:06.810Z,33.03
2023-01-15T05:23:36.946Z,33.05
2023-01-15T05:24:07.037Z,33.05
2023-01-15T05:24:37.145Z,33.05
2023-01-15T05:25:07.255Z,33.02
2023-01-15T05:25:37.365Z,33.00
2023-01-15T05:26:07.479Z,33.00
2023-01-15T05:26:37.592Z,33.06
2023-01-15T05:27:07.701Z,33.03
2023-01-15T05:27:37.812Z,32.98
2023-01-15T05:28:07.921Z,33.00
2023-01-15T05:28:38.054Z,32.99
2023-01-15T05:29:08.161Z,33.02
2023-01-15T05:29:38.267Z,33.02
2023-01-15T05:30:08.393Z,33.05
2023-01-15T05:30:38.379Z,33.00
2023-01-15T05:31:08.511Z,33.00
2023-01-15T05:31:38.493Z,32.97
2023-01-15T05:32:09.688Z,32.99
2023-01-15T05:32:38.640Z,32.97
2023-01-15T05:33:08.747Z,33.02
2023-01-15T05:33:38.899Z,32.98
2023-01-15T05:34:08.888Z,33.03
2023-01-15T05:34:38.990Z,33.00
2023-01-15T05:35:09.110Z,32.99
2023-01-15T05:35:39.258Z,33.02
2023-01-15T05:36:09.266Z,33.07
2023-01-15T05:36:39.386Z,33.05
2023-01-15T05:37:09.498Z,33.03
2023-01-15T05:37:39.615Z,33.02
2023-01-15T05:38:09.612Z,33.03
2023-01-15T05:38:39.755Z,33.05
2023-01-15T05:39:09.735Z,33.00
2023-01-15T05:39:39.845Z,33.02
2023-01-15T05:40:09.839Z,33.05
2023-01-15T05:40:39.942Z,33.05
2023-01-15T05:41:10.050Z,33.05
2023-01-15T05:41:40.169Z,33.05
2023-01-15T05:42:10.278Z,33.02
2023-01-15T05:42:40.393Z,33.07
2023-01-15T05:43:10.499Z,33.09
2023-01-15T05:43:40.607Z,33.05
2023-01-15T05:44:10.728Z,33.06
2023-01-15T05:44:40.711Z,33.05
2023-01-15T05:45:10.754Z,33.13
2023-01-15T05:45:40.869Z,33.06
2023-01-15T05:46:11.021Z,33.06
2023-01-15T05:46:41.005Z,33.09
2023-01-15T05:47:11.155Z,33.06
2023-01-15T05:47:41.135Z,33.04
2023-01-15T05:48:11.253Z,33.09
2023-01-15T05:48:41.327Z,33.08
2023-01-15T05:49:11.416Z,33.06
2023-01-15T05:49:41.496Z,33.13
2023-01-15T05:50:11.567Z,33.08
2023-01-15T05:50:41.643Z,33.13
2023-01-15T05:51:11.711Z,33.14
2023-01-15T05:51:41.787Z,33.13
2023-01-15T05:52:11.882Z,33.06
2023-01-15T05:52:41.979Z,33.07
2023-01-15T05:53:11.929Z,33.09
2023-01-15T05:53:42.001Z,33.13
2023-01-15T05:54:12.074Z,33.13
2023-01-15T05:54:42.149Z,33.09
2023-01-15T05:55:12.230Z,33.11
2023-01-15T05:55:42.294Z,33.05
2023-01-15T05:56:12.376Z,33.11
2023-01-15T05:56:42.442Z,33.09
2023-01-15T05:57:12.525Z,33.11
2023-01-15T05:57:42.597Z,33.13
2023-01-15T05:58:12.665Z,33.11
2023-01-15T05:58:42.773Z,33.06
2023-01-15T05:59:12.983Z,33.07
2023-01-15T05:59:42.937Z,33.06
2023-01-15T06:00:13.056Z,33.09
2023-01-15T06:00:43.170Z,33.08
2023-01-15T06:01:13.185Z,33.08
2023-01-15T06:01:43.163Z,33.11
2023-01-15T06:02:13.284Z,33.07
2023-01-15T06:02:43.314Z,33.06
2023-01-15T06:03:13.307Z,33.09
2023-01-15T06:03:43.441Z,33.09
2023-01-15T06:04:13.427Z,33.11
2023-01-15T06:04:43.415Z,33.06
2023-01-15T06:05:13.523Z,33.09
2023-01-15T06:05:43.632Z,33.09
2023-01-15T06:06:13.772Z,33.07
2023-01-15T06:06:43.854Z,33.05
2023-01-15T06:07:13.970Z,33.06
2023-01-15T06:07:44.091Z,33.06
2023-01-15T06:08:14.193Z,33.05
2023-01-15T06:08:44.201Z,33.07
2023-01-15T06:09:14.207Z,33.06
2023-01-15T06:09:44.187Z,33.08
2023-01-15T06:10:14.301Z,33.05
2023-01-15T06:10:44.416Z,33.11
2023-01-15T06:11:14.527Z,33.06
2023-01-15T06:11:44.653Z,33.08
2023-01-15T06:12:14.644Z,33.09
2023-01-15T06:12:44.760Z,33.01
2023-01-15T06:13:14.868Z,33.03
2023-01-15T06:13:44.976Z,33.05
2023-01-15T06:14:15.115Z,33.01
2023-01-15T06:14:45.211Z,33.03
2023-01-15T06:15:15.323Z,33.05
2023-01-15T06:15:45.470Z,33.07
2023-01-15T06:16:15.471Z,33.06
2023-01-15T06:16:45.438Z,33.00
2023-01-15T06:17:15.558Z,33.06
2023-01-15T06:17:45.673Z,33.00
2023-01-15T06:18:15.785Z,33.02
2023-01-15T06:18:45.895Z,33.05
2023-01-15T06:19:16.032Z,33.01
2023-01-15T06:19:46.011Z,33.03
2023-01-15T06:20:16.125Z,33.00
2023-01-15T06:20:46.114Z,33.05
2023-01-15T06:21:16.233Z,32.98
2023-01-15T06:21:46.349Z,33.00
2023-01-15T06:22:16.479Z,33.08
2023-01-15T06:22:46.500Z,33.00
2023-01-15T06:23:16.612Z,33.01
2023-01-15T06:23:46.734Z,33.05
2023-01-15T06:24:16.836Z,33.06
2023-01-15T06:24:46.952Z,33.01
2023-01-15T06:25:17.063Z,33.01
2023-01-15T06:25:47.216Z,33.01
2023-01-15T06:26:17.220Z,33.03
2023-01-15T06:26:47.181Z,33.01
2023-01-15T06:27:17.326Z,32.98
2023-01-15T06:27:47.328Z,33.00
2023-01-15T06:28:17.431Z,33.01
2023-01-15T06:28:47.536Z,32.98